East Corinth, ME

4:55 AM EST on December 09, 2016 (GMT -0500)
KMEGARLA2 | | Change Station

Elev 410 ft 45.02 °N, 69.13 °W | Updated 14 seconds ago

Mostly Cloudy
Mostly Cloudy
25.2 °F
Feels Like 20 °F
N
4.0
Wind Variable Wind from WNW
Gusts 5.0 mph

Today
High -- | Low -- °F
--% Chance of Precip.
Yesterday
High -- | Low -- °F
Precip. -- in
Pressure 29.68 in
Visibility 10.0 miles
Clouds Scattered Clouds 4700 ft
Windchill 20 °F
Dew Point 23 °F
Humidity 92%
Rainfall 0.00 in
Snow Depth Not available.
7:02 AM 3:54 PM
Waxing Gibbous, 72% visible
METAR KBGR 090853Z 33006KT 10SM SCT047 M04/M07 A2967 RMK AO2 SLP048 T10441067 53006
Pressure 29.68 in
Visibility 10.0 miles
Clouds Scattered Clouds 4700 ft
Windchill 20 °F
Dew Point 23 °F
Humidity 92%
Rainfall 0.00 in
Snow Depth Not available.
7:02 AM 3:54 PM
Waxing Gibbous, 72% visible
METAR KBGR 090853Z 33006KT 10SM SCT047 M04/M07 A2967 RMK AO2 SLP048 T10441067 53006

10-Day Weather Forecast

Almanac

Astronomy

Dec. 09, 2016 Rise Set
Actual Time
Civil Twilight
Nautical Twilight
Astronomical Twilight
Moon
Length of Visible Light
Length of Day
Tomorrow will be .
, % of the Moon is Illuminated

Today's Extremes

State Highs State Lows

Community

WunderPhotos

Upload Photos

1,956,378 photos uploaded!

WunderBlog® & News

Nearby

Air Quality

  Air Quality AQ Index Pollutant
Not available.

Snow Depth

Station Depth Elevation

Earthquake Activity

City Distance Mag. Time & Date
Minimum magnitude displayed is 2.5.

Coastal Water Temperatures

Place Temperature

Stations

Nearby Weather Stations

Station Location Temp. Windchill Dew Point Humidity Wind Precip. Elev Updated Type
                   

Watches & Warnings

There are currently no watches in effect.